Pagrindinis puslapis
METAR-TAF:

METAR-TAF

Oro uostai :

North Battleford, Saskačevanas, Kanada

platuma: 52-46N, ilguma: 108-15W, Aukštis: 548 m

Dabartinis oras

Ataskaita buvo paskelbta 23 minutes, ne 14:00 UTC
Vėjas 10 kt iš Pietryčių
Temperatūra -27°C
Drėgmė 75%
Slėgis 1031 hPa
Matomumas: 14.5 km
Giedras dangus

METAR: CYQW 191400Z AUTO 13010KT 9SM CLR M27/M30 A3044 RMK SLP383

Laikas: 08:23 (14:23 UTC)

Prognozė

Ataskaita buvo paskelbta 2 valandos ir 45 minutes, ne 11:38 UTC
Prognozė galioja nuo 19 metu 12 UTC su 19 metu 24 UTC
Vėjas 6 kt iš Rytų/Pietryčių
Matomumas: 10 km
Giedras dangus
Nuo 19 metu 1600 UTC
Vėjas 8 kt iš Rytų/Pietryčių
Matomumas: 10 km
Mažai debesys ne aukštis 6000 ft
Išsisklaidę debesys ne aukštis 15000 ft
Tapsmas
nuo 19 metu 20 UTC su 19 metu 22 UTC
Vėjas 6 kt iš Pietų/Pietvakarių

TAF: CYQW 191138Z 1912/1924 12006KT P6SM SKC FM191600 12008KT P6SM FEW060 SCT150 BECMG 1920/1922 20006KT RMK FCST BASED ON AUTO OBS. NXT FCST BY 191800Z

Orai ataskaitas ir orų prognozės (METAR, TAF).

turimą stotys yra geltonos ir raudonos taškus žemėlapyje.

Perkelti pele per norėdami pamatyti stoties vardą.

Tada spustelėkite, norėdami matyti oro stebėjimo ir prognozės.

Norėdami pakeisti žemėlapį: spustelėkite ant žalios mygtukų su juodo kryžiaus žemyn,; žalią mygtuką su brūkšneliu, jei norite nutolinti; arba žalių rodyklių gretimoms žemėlapius.


METAR-TAF: